Time;durP1;ratioP1;P1;durP2;ratioP2;P2;SDS_P1;SDS_P2;PMS_P1;PMS_P2;Temp;Humidity;BMP_temperature;BMP_pressure;BME280_temperature;BME280_humidity;BME280_pressure;Samples;Min_cycle;Max_cycle;Signal;HPM_P1;HPM_P2
2022/06/04 00:01:12;;;;;;;3.20;2.37;;;;;;;20.78;93.95;100479.47;5590830;31;34192;-70
2022/06/04 00:04:16;;;;;;;4.70;2.30;;;;;;;20.19;96.37;100478.47;5590461;31;35063;-67
2022/06/04 00:07:18;;;;;;;4.95;2.75;;;;;;;19.77;100.00;100491.00;5590369;31;34154;-68
2022/06/04 00:17:10;;;;;;;6.53;3.90;;;;;;;19.08;100.00;100480.50;5590739;31;34965;-70
2022/06/04 00:20:13;;;;;;;4.43;2.60;;;;;;;18.92;100.00;100473.84;5590257;31;35575;-68
2022/06/04 00:23:16;;;;;;;6.12;3.97;;;;;;;18.97;100.00;100478.56;5590580;31;34583;-68
2022/06/04 00:26:19;;;;;;;5.30;3.42;;;;;;;18.95;100.00;100468.03;5590360;31;34577;-68
2022/06/04 00:29:22;;;;;;;7.93;3.58;;;;;;;18.85;100.00;100469.56;5590321;31;34136;-68
2022/06/04 00:32:25;;;;;;;7.30;3.90;;;;;;;19.08;100.00;100465.22;5590131;31;35468;-68
2022/06/04 00:35:27;;;;;;;7.45;4.50;;;;;;;19.20;100.00;100465.31;5590263;31;34215;-67
2022/06/04 00:38:32;;;;;;;5.75;4.03;;;;;;;19.03;100.00;100466.91;5590268;31;34197;-67
2022/06/04 00:42:10;;;;;;;5.72;4.03;;;;;;;18.94;100.00;100458.31;5590531;31;34166;-68
2022/06/04 00:45:21;;;;;;;5.65;3.85;;;;;;;18.95;100.00;100459.12;5576973;31;35459;-68
2022/06/04 00:48:26;;;;;;;6.85;4.50;;;;;;;18.80;100.00;100472.91;5590415;31;34860;-68
2022/06/04 00:51:28;;;;;;;5.32;4.20;;;;;;;18.88;100.00;100474.50;5590134;31;34275;-68
2022/06/04 00:54:31;;;;;;;7.57;4.72;;;;;;;19.11;100.00;100474.72;5590362;31;34916;-69
2022/06/04 00:57:59;;;;;;;8.52;4.80;;;;;;;19.15;100.00;100467.03;5589964;31;34197;-68
2022/06/04 01:01:21;;;;;;;11.30;5.00;;;;;;;18.97;100.00;100457.87;5589343;31;34237;-68
2022/06/04 01:04:48;;;;;;;6.32;4.70;;;;;;;18.99;100.00;100457.66;5589969;31;34844;-68
2022/06/04 01:08:09;;;;;;;8.35;5.03;;;;;;;18.96;100.00;100444.66;5589891;31;34275;-68
2022/06/04 01:12:11;;;;;;;5.45;4.47;;;;;;;18.99;100.00;100446.87;5589959;31;34199;-68
2022/06/04 01:15:58;;;;;;;7.78;4.90;;;;;;;18.93;100.00;100437.84;5589773;31;34803;-69
2022/06/04 01:19:16;;;;;;;9.38;5.60;;;;;;;18.94;100.00;100423.34;5589746;31;34196;-69
2022/06/04 01:22:36;;;;;;;8.00;5.97;;;;;;;18.92;100.00;100422.78;5589776;31;34241;-69
2022/06/04 01:26:04;;;;;;;9.15;5.32;;;;;;;18.92;100.00;100409.34;5589752;31;34934;-69
2022/06/04 01:29:16;;;;;;;6.53;4.75;;;;;;;18.92;100.00;100403.13;5589846;31;34173;-68
2022/06/04 01:32:49;;;;;;;7.70;5.18;;;;;;;19.18;100.00;100400.16;5589653;31;34194;-69
2022/06/04 01:36:06;;;;;;;9.63;5.30;;;;;;;19.04;100.00;100385.22;5589830;31;34211;-68
2022/06/04 01:39:20;;;;;;;8.40;5.05;;;;;;;19.12;100.00;100383.03;5589597;31;34717;-68
2022/06/04 01:42:25;;;;;;;6.40;4.95;;;;;;;19.03;100.00;100376.31;5589618;31;34892;-68
2022/06/04 01:45:31;;;;;;;6.28;5.05;;;;;;;19.10;100.00;100377.09;5589619;31;34878;-68
2022/06/04 01:48:38;;;;;;;6.47;5.12;;;;;;;18.97;100.00;100377.22;5589554;31;34356;-69
2022/06/04 01:51:42;;;;;;;6.85;5.00;;;;;;;18.94;100.00;100395.66;5589604;31;35483;-68
2022/06/04 01:54:57;;;;;;;7.70;5.87;;;;;;;18.86;100.00;100412.06;5589429;31;34900;-68
2022/06/04 01:58:03;;;;;;;7.87;5.90;;;;;;;18.82;100.00;100425.12;5589438;31;34938;-68
2022/06/04 02:01:14;;;;;;;6.50;5.07;;;;;;;18.89;100.00;100427.75;5589523;31;34262;-68
2022/06/04 02:04:22;;;;;;;7.37;5.40;;;;;;;18.87;100.00;100428.00;5589459;31;34248;-69
2022/06/04 02:07:31;;;;;;;13.02;5.90;;;;;;;18.89;100.00;100430.44;5589695;31;34122;-69
2022/06/04 02:10:38;;;;;;;8.67;5.43;;;;;;;18.84;100.00;100409.59;5589312;31;34202;-70
2022/06/04 02:13:48;;;;;;;9.40;5.80;;;;;;;18.85;100.00;100405.88;5588132;31;34842;-69
2022/06/04 02:17:03;;;;;;;10.32;6.80;;;;;;;18.85;100.00;100405.88;5589408;31;34594;-69
2022/06/04 02:20:07;;;;;;;8.98;6.10;;;;;;;18.81;100.00;100398.47;5589253;31;34191;-69
2022/06/04 02:23:10;;;;;;;6.62;5.15;;;;;;;18.82;100.00;100389.37;5589547;31;34278;-69
2022/06/04 02:26:15;;;;;;;7.35;5.47;;;;;;;18.91;100.00;100388.03;5589342;31;34099;-68
2022/06/04 02:29:19;;;;;;;8.75;5.57;;;;;;;18.86;100.00;100404.00;5589551;31;34227;-68
2022/06/04 02:32:32;;;;;;;7.55;6.10;;;;;;;18.87;100.00;100406.47;5589336;31;35049;-69
2022/06/04 02:35:46;;;;;;;8.45;6.12;;;;;;;18.81;100.00;100411.91;5589098;31;35441;-68
2022/06/04 02:38:59;;;;;;;7.35;5.68;;;;;;;18.78;100.00;100407.81;5588983;31;34275;-68
2022/06/04 02:42:15;;;;;;;6.80;5.85;;;;;;;18.76;100.00;100401.81;5589048;31;34553;-69
2022/06/04 02:45:27;;;;;;;7.55;5.78;;;;;;;18.70;100.00;100393.81;5588997;31;35532;-68
2022/06/04 02:48:58;;;;;;;9.00;5.60;;;;;;;18.77;100.00;100389.22;5588892;31;34143;-69
2022/06/04 02:52:03;;;;;;;9.98;5.35;;;;;;;18.75;100.00;100393.97;5589162;31;35008;-68
2022/06/04 02:55:12;;;;;;;7.57;5.70;;;;;;;18.78;100.00;100399.75;5588775;31;34179;-68
2022/06/04 02:58:18;;;;;;;12.05;6.87;;;;;;;18.64;100.00;100417.00;5588960;31;35388;-68
2022/06/04 03:01:22;;;;;;;8.43;6.12;;;;;;;18.62;100.00;100422.63;5588683;31;34952;-69
2022/06/04 03:04:25;;;;;;;9.88;6.93;;;;;;;18.64;100.00;100428.56;5588944;31;34238;-69
2022/06/04 03:07:28;;;;;;;7.62;5.70;;;;;;;18.69;100.00;100429.81;5588552;31;34541;-69
2022/06/04 03:10:35;;;;;;;8.77;5.82;;;;;;;18.74;100.00;100420.03;5588442;31;34819;-70
2022/06/04 03:13:38;;;;;;;9.07;5.87;;;;;;;18.69;100.00;100416.37;5588289;31;34150;-70
2022/06/04 03:16:44;;;;;;;7.65;5.53;;;;;;;18.67;100.00;100408.53;5588316;31;34307;-70
2022/06/04 03:19:46;;;;;;;7.57;5.50;;;;;;;18.63;100.00;100408.16;5588326;31;34181;-70
2022/06/04 03:22:50;;;;;;;9.98;5.03;;;;;;;18.66;100.00;100407.69;5588198;31;34932;-70
2022/06/04 03:25:53;;;;;;;7.70;5.22;;;;;;;18.65;100.00;100406.03;5590374;31;34824;-70
2022/06/04 03:28:56;;;;;;;9.55;5.00;;;;;;;18.61;100.00;100391.41;5590733;31;34917;-70
2022/06/04 03:31:59;;;;;;;10.05;5.55;;;;;;;18.52;100.00;100394.56;5590641;31;34878;-70
2022/06/04 03:35:02;;;;;;;8.85;5.18;;;;;;;18.53;100.00;100388.16;5590755;31;34979;-69
2022/06/04 03:38:05;;;;;;;7.05;4.53;;;;;;;18.57;100.00;100392.87;5589920;31;34155;-69
2022/06/04 03:41:07;;;;;;;5.20;3.78;;;;;;;18.65;100.00;100399.84;5590620;31;34207;-70
2022/06/04 03:44:10;;;;;;;8.18;4.22;;;;;;;18.57;100.00;100410.88;5591059;31;34288;-69
2022/06/04 03:47:15;;;;;;;9.77;4.70;;;;;;;18.63;100.00;100426.94;5590726;31;34062;-69
2022/06/04 03:50:18;;;;;;;8.05;4.70;;;;;;;18.44;100.00;100419.84;5590526;31;34152;-70
2022/06/04 03:53:20;;;;;;;8.50;4.53;;;;;;;18.41;100.00;100411.38;5590584;31;34305;-71
2022/06/04 03:56:24;;;;;;;8.27;4.62;;;;;;;18.38;100.00;100401.06;5590888;31;34890;-70
2022/06/04 03:59:26;;;;;;;7.55;4.82;;;;;;;18.42;100.00;100396.91;5590438;31;35023;-70
2022/06/04 04:02:43;;;;;;;9.10;4.70;;;;;;;18.34;100.00;100402.56;5590553;31;34195;-70
2022/06/04 04:05:55;;;;;;;6.85;4.85;;;;;;;18.35;100.00;100406.87;5590586;31;35529;-70
2022/06/04 04:08:58;;;;;;;9.93;4.82;;;;;;;18.33;100.00;100412.47;5590490;31;34870;-70
2022/06/04 04:12:01;;;;;;;8.65;4.72;;;;;;;18.32;100.00;100410.81;5590416;31;34342;-70
2022/06/04 04:15:04;;;;;;;6.87;4.80;;;;;;;18.33;100.00;100414.31;5590609;31;34101;-71
2022/06/04 04:18:08;;;;;;;7.97;5.37;;;;;;;18.24;100.00;100419.16;5590327;31;34209;-71
2022/06/04 04:21:18;;;;;;;7.57;4.95;;;;;;;18.28;100.00;100419.53;5590369;31;34200;-70
2022/06/04 04:24:21;;;;;;;6.20;4.60;;;;;;;18.34;100.00;100426.72;5590374;31;34176;-71
2022/06/04 04:27:23;;;;;;;9.13;4.90;;;;;;;18.33;100.00;100430.44;5589556;31;34923;-72
2022/06/04 04:30:29;;;;;;;10.52;5.15;;;;;;;18.33;100.00;100433.13;5590516;31;35462;-73
2022/06/04 04:33:34;;;;;;;13.15;5.30;;;;;;;18.24;100.00;100432.56;5590076;31;34299;-75
2022/06/04 04:36:37;;;;;;;10.38;5.50;;;;;;;18.34;100.00;100415.97;5589750;31;34112;-74
2022/06/04 04:39:40;;;;;;;10.02;5.22;;;;;;;18.27;100.00;100410.66;5590218;31;34148;-73
2022/06/04 04:42:43;;;;;;;10.52;5.60;;;;;;;18.23;100.00;100426.38;5590228;31;34588;-74
2022/06/04 04:45:45;;;;;;;12.02;5.57;;;;;;;18.18;100.00;100434.25;5590460;31;34842;-75
2022/06/04 04:48:52;;;;;;;12.88;5.00;;;;;;;18.13;100.00;100458.25;5590865;31;34206;-78
2022/06/04 04:51:54;;;;;;;9.85;5.03;;;;;;;18.03;100.00;100474.00;5590276;31;32677;-78
2022/06/04 04:54:57;;;;;;;11.65;5.03;;;;;;;18.02;100.00;100425.88;5590246;31;34502;-76
2022/06/04 04:58:02;;;;;;;8.68;4.60;;;;;;;18.02;100.00;100433.91;5590382;31;34648;-74
2022/06/04 05:01:20;;;;;;;9.65;4.45;;;;;;;18.01;100.00;100441.16;5590083;31;34123;-72
2022/06/04 05:04:23;;;;;;;10.50;4.72;;;;;;;18.24;100.00;100444.13;5590332;31;34847;-74
2022/06/04 05:07:26;;;;;;;10.32;3.95;;;;;;;18.10;100.00;100422.94;5576071;31;32919;-74
2022/06/04 05:10:29;;;;;;;7.95;4.20;;;;;;;18.00;100.00;100409.16;5590175;31;34289;-75
2022/06/04 05:13:33;;;;;;;7.43;4.50;;;;;;;17.96;100.00;100407.97;5590118;31;34294;-73
2022/06/04 05:16:38;;;;;;;13.27;4.45;;;;;;;18.02;100.00;100413.28;5589951;31;34291;-73
2022/06/04 05:19:41;;;;;;;8.05;4.30;;;;;;;18.02;100.00;100412.44;5589070;31;34321;-73
2022/06/04 05:22:44;;;;;;;10.20;4.10;;;;;;;17.99;100.00;100408.34;5589965;31;34840;-72
2022/06/04 05:25:47;;;;;;;9.13;3.72;;;;;;;18.03;100.00;100409.56;5589113;31;34198;-72
2022/06/04 05:28:53;;;;;;;10.55;4.15;;;;;;;18.22;100.00;100432.78;5589853;31;34337;-71
2022/06/04 05:32:03;;;;;;;9.30;4.10;;;;;;;18.23;100.00;100429.06;5589370;31;34994;-72
2022/06/04 05:35:06;;;;;;;6.85;3.80;;;;;;;18.19;100.00;100427.03;5576109;31;34852;-72
2022/06/04 05:38:09;;;;;;;9.13;3.90;;;;;;;18.21;100.00;100417.69;5588748;31;34167;-73
2022/06/04 05:41:15;;;;;;;13.00;4.70;;;;;;;18.42;100.00;100423.75;5588900;31;34581;-72
2022/06/04 05:44:20;;;;;;;7.35;3.65;;;;;;;18.42;100.00;100429.12;5576302;31;34306;-72
2022/06/04 05:47:25;;;;;;;6.25;3.30;;;;;;;18.38;100.00;100436.81;5589209;31;35461;-73
2022/06/04 05:50:27;;;;;;;9.50;4.15;;;;;;;18.15;100.00;100442.72;5589437;31;34174;-73
2022/06/04 05:53:30;;;;;;;9.77;4.05;;;;;;;18.23;100.00;100449.72;5589933;31;34211;-73
2022/06/04 05:56:36;;;;;;;6.60;3.45;;;;;;;18.17;100.00;100435.28;5589794;31;34839;-72
2022/06/04 05:59:38;;;;;;;10.73;3.60;;;;;;;18.30;100.00;100437.06;5589203;31;34220;-73
2022/06/04 06:02:41;;;;;;;8.63;3.80;;;;;;;18.29;100.00;100443.50;5589621;31;34691;-72
2022/06/04 06:05:45;;;;;;;11.07;3.55;;;;;;;18.46;100.00;100441.09;5589497;31;34502;-72
2022/06/04 06:08:48;;;;;;;9.63;3.80;;;;;;;18.72;100.00;100438.25;5588678;31;34170;-72
2022/06/04 06:11:53;;;;;;;9.00;3.78;;;;;;;18.85;100.00;100446.19;5589347;31;34192;-72
2022/06/04 06:14:56;;;;;;;11.23;3.05;;;;;;;18.95;100.00;100454.59;5589328;31;34843;-73
2022/06/04 06:18:00;;;;;;;11.45;3.12;;;;;;;18.91;100.00;100450.69;5589260;31;34546;-72
2022/06/04 06:21:12;;;;;;;7.10;3.35;;;;;;;18.78;100.00;100448.13;5588374;31;34911;-71
2022/06/04 06:24:31;;;;;;;9.43;3.22;;;;;;;18.81;100.00;100446.84;5589213;31;34910;-73
2022/06/04 06:27:34;;;;;;;9.90;3.60;;;;;;;18.85;100.00;100442.69;5588445;31;34983;-73
2022/06/04 06:30:37;;;;;;;7.50;3.10;;;;;;;18.93;100.00;100439.69;5589182;31;34133;-72
2022/06/04 06:33:39;;;;;;;8.82;3.53;;;;;;;18.91;100.00;100433.75;5588779;31;34908;-72
2022/06/04 06:36:43;;;;;;;7.78;3.30;;;;;;;18.86;100.00;100439.78;5588850;31;34613;-72
2022/06/04 06:39:45;;;;;;;8.60;3.17;;;;;;;18.86;100.00;100438.94;5588832;31;34327;-72
2022/06/04 06:42:48;;;;;;;4.93;3.33;;;;;;;18.80;100.00;100435.28;5588989;31;34242;-72
2022/06/04 06:46:01;;;;;;;8.48;3.55;;;;;;;18.65;100.00;100432.09;5589256;31;34206;-72
2022/06/04 06:49:13;;;;;;;10.15;3.97;;;;;;;18.66;100.00;100437.25;5588689;31;34950;-72
2022/06/04 06:52:16;;;;;;;11.25;4.03;;;;;;;18.63;100.00;100431.50;5588876;31;34845;-72
2022/06/04 06:55:19;;;;;;;5.35;3.33;;;;;;;18.60;100.00;100429.22;5588741;31;35472;-72
2022/06/04 06:58:22;;;;;;;5.45;3.30;;;;;;;18.69;100.00;100427.91;5589050;31;34204;-72
2022/06/04 07:01:26;;;;;;;7.10;3.55;;;;;;;18.74;100.00;100430.75;5595054;31;34132;-71
2022/06/04 07:04:29;;;;;;;6.07;3.20;;;;;;;18.59;100.00;100430.25;5595121;31;34196;-71
2022/06/04 07:07:35;;;;;;;8.32;3.50;;;;;;;18.62;100.00;100419.94;5595061;31;34664;-72
2022/06/04 07:10:38;;;;;;;10.90;3.25;;;;;;;18.49;100.00;100421.88;5595117;31;34519;-71
2022/06/04 07:13:41;;;;;;;7.28;3.78;;;;;;;18.48;100.00;100412.97;5594929;31;34558;-72
2022/06/04 07:16:44;;;;;;;4.37;3.22;;;;;;;18.50;100.00;100410.06;5594914;31;34340;-72
2022/06/04 07:19:48;;;;;;;6.28;3.40;;;;;;;18.49;100.00;100408.44;5593908;31;34229;-72
2022/06/04 07:22:52;;;;;;;8.20;3.42;;;;;;;18.60;100.00;100411.25;5594265;31;34277;-71
2022/06/04 07:25:55;;;;;;;8.80;3.70;;;;;;;18.67;100.00;100412.03;5594742;31;34166;-72
2022/06/04 07:28:58;;;;;;;7.25;3.35;;;;;;;18.68;100.00;100415.53;5594097;31;33463;-72
2022/06/04 07:32:01;;;;;;;7.22;3.17;;;;;;;18.75;100.00;100418.16;5594973;31;34158;-71
2022/06/04 07:35:04;;;;;;;7.93;3.97;;;;;;;18.83;100.00;100420.59;5594405;31;34276;-71
2022/06/04 07:38:07;;;;;;;9.18;3.67;;;;;;;18.83;100.00;100420.59;5594296;31;34898;-71
2022/06/04 07:41:20;;;;;;;5.62;3.30;;;;;;;18.85;100.00;100423.84;5594681;31;34169;-72
2022/06/04 07:44:25;;;;;;;6.07;3.37;;;;;;;18.87;100.00;100425.31;5594532;31;34224;-72
2022/06/04 07:47:28;;;;;;;6.28;3.12;;;;;;;19.20;100.00;100421.47;5594302;31;35405;-71
2022/06/04 07:50:32;;;;;;;9.32;3.33;;;;;;;19.15;100.00;100427.50;5593700;31;33526;-71
2022/06/04 07:53:35;;;;;;;7.28;3.37;;;;;;;19.12;100.00;100420.69;5594738;31;34223;-71
2022/06/04 07:56:39;;;;;;;5.95;3.30;;;;;;;19.24;100.00;100428.84;5594115;31;34043;-71
2022/06/04 07:59:42;;;;;;;5.82;3.20;;;;;;;19.20;100.00;100418.78;5594106;31;35468;-71
2022/06/04 08:02:46;;;;;;;6.82;3.35;;;;;;;19.45;100.00;100427.63;5594219;31;34959;-71
2022/06/04 08:05:50;;;;;;;8.35;3.95;;;;;;;19.32;100.00;100425.88;5593866;31;34232;-71
2022/06/04 08:08:57;;;;;;;5.90;3.60;;;;;;;19.56;100.00;100418.78;5594338;31;34430;-71
2022/06/04 08:12:00;;;;;;;6.70;3.53;;;;;;;20.13;100.00;100414.75;5591358;31;34129;-71
2022/06/04 08:15:03;;;;;;;5.37;3.53;;;;;;;20.45;100.00;100418.00;5590528;31;34588;-72
2022/06/04 08:18:06;;;;;;;5.62;3.45;;;;;;;20.41;100.00;100407.94;5590427;31;34439;-70
2022/06/04 08:21:09;;;;;;;7.25;3.35;;;;;;;20.91;100.00;100408.34;5589520;31;34213;-71
2022/06/04 08:24:14;;;;;;;4.18;2.97;;;;;;;21.47;100.00;100415.81;5590720;31;34131;-71
2022/06/04 08:27:17;;;;;;;7.68;3.67;;;;;;;22.44;100.00;100422.84;5589743;31;32977;-70
2022/06/04 08:30:19;;;;;;;7.93;2.70;;;;;;;22.66;100.00;100411.28;5590291;31;34889;-71
2022/06/04 08:33:22;;;;;;;5.03;3.25;;;;;;;23.17;99.05;100411.03;5589952;31;34672;-71
2022/06/04 08:36:26;;;;;;;8.20;2.97;;;;;;;23.57;98.20;100415.38;5588989;31;34271;-72
2022/06/04 08:39:29;;;;;;;5.97;2.95;;;;;;;23.71;94.60;100413.94;5589350;31;32722;-71
2022/06/04 08:42:56;;;;;;;6.05;3.30;;;;;;;23.67;95.14;100418.22;5590205;31;34537;-71
2022/06/04 08:46:02;;;;;;;6.37;2.70;;;;;;;23.05;95.42;100412.19;5590162;31;34344;-71
2022/06/04 08:49:21;;;;;;;6.55;3.08;;;;;;;22.85;98.68;100420.84;5589209;31;33459;-71
2022/06/04 08:52:59;;;;;;;3.60;3.00;;;;;;;22.91;95.70;100426.06;5590049;31;35012;-71
2022/06/04 08:59:42;;;;;;;5.20;2.80;;;;;;;23.00;100.00;100409.41;5590021;31;34878;-71
2022/06/04 09:02:52;;;;;;;4.62;3.10;;;;;;;22.94;100.00;100420.19;5589851;31;34678;-71
2022/06/04 09:06:13;;;;;;;3.97;3.40;;;;;;;22.89;98.04;100422.00;5589945;31;34202;-71
2022/06/04 09:09:45;;;;;;;3.95;3.10;;;;;;;22.89;96.09;100416.56;5589896;31;34540;-71
2022/06/04 09:13:25;;;;;;;4.15;3.20;;;;;;;23.00;94.42;100425.62;5589672;31;34329;-71
2022/06/04 09:16:33;;;;;;;7.07;3.58;;;;;;;22.76;96.06;100433.13;5589546;31;34405;-71
2022/06/04 09:19:39;;;;;;;6.10;3.28;;;;;;;22.63;99.67;100428.00;5589020;31;34275;-71
2022/06/04 09:22:45;;;;;;;5.32;3.47;;;;;;;22.48;100.00;100421.28;5589557;31;34332;-70
2022/06/04 09:26:13;;;;;;;5.75;3.50;;;;;;;22.30;98.87;100418.00;5590077;31;34139;-70
2022/06/04 09:29:25;;;;;;;7.53;3.40;;;;;;;22.19;100.00;100419.69;5589307;31;34187;-71
2022/06/04 09:32:54;;;;;;;11.40;4.12;;;;;;;22.04;100.00;100425.62;5588968;31;33226;-71
2022/06/04 09:35:58;;;;;;;8.27;3.75;;;;;;;21.53;100.00;100426.50;5589765;31;34102;-70
2022/06/04 09:39:04;;;;;;;8.40;3.90;;;;;;;21.67;100.00;100425.16;5589678;31;34900;-71
2022/06/04 09:42:13;;;;;;;6.15;3.65;;;;;;;21.67;100.00;100410.84;5588667;31;33781;-71
2022/06/04 09:45:26;;;;;;;7.93;3.90;;;;;;;22.02;100.00;100419.66;5588964;31;33481;-71
2022/06/04 09:48:32;;;;;;;8.35;4.68;;;;;;;22.62;100.00;100423.66;5589353;31;34266;-73
2022/06/04 09:51:41;;;;;;;7.93;4.10;;;;;;;22.65;100.00;100421.31;5589273;31;34176;-72
2022/06/04 09:54:54;;;;;;;9.85;3.90;;;;;;;22.64;99.40;100421.56;5589849;31;34259;-72
2022/06/04 09:57:56;;;;;;;5.28;3.80;;;;;;;22.97;100.00;100429.69;5589301;31;34186;-72
2022/06/04 10:01:07;;;;;;;6.18;3.47;;;;;;;23.52;96.26;100435.09;5589367;31;34251;-71
2022/06/04 10:04:14;;;;;;;6.32;3.60;;;;;;;23.60;94.77;100429.22;5589331;31;34583;-73
2022/06/04 10:07:26;;;;;;;4.47;3.35;;;;;;;23.24;96.88;100429.78;5589578;31;34814;-72
2022/06/04 10:10:38;;;;;;;4.93;3.40;;;;;;;24.29;89.65;100426.78;5589419;31;34308;-71
2022/06/04 10:13:47;;;;;;;4.32;2.65;;;;;;;24.53;86.02;100419.94;5589167;31;34163;-73
2022/06/04 10:16:50;;;;;;;5.68;3.20;;;;;;;26.42;78.99;100425.25;5589231;31;34805;-72
2022/06/04 10:19:55;;;;;;;8.35;3.47;;;;;;;27.40;72.86;100431.94;5588304;31;32571;-72
2022/06/04 10:22:57;;;;;;;5.18;3.40;;;;;;;26.46;73.84;100429.87;5589050;31;34509;-75
2022/06/04 10:26:12;;;;;;;7.03;3.28;;;;;;;25.16;80.42;100428.28;5589025;31;34246;-73
2022/06/04 10:29:58;;;;;;;5.12;2.97;;;;;;;24.60;84.13;100425.12;5589222;31;34898;-73
2022/06/04 10:33:24;;;;;;;5.40;3.60;;;;;;;24.97;83.48;100431.44;5588371;31;34827;-73
2022/06/04 10:36:30;;;;;;;6.35;3.80;;;;;;;25.14;82.50;100436.69;5588929;31;34106;-73
2022/06/04 10:39:49;;;;;;;6.45;3.35;;;;;;;25.07;81.48;100436.13;5588997;31;34991;-75
2022/06/04 10:43:29;;;;;;;4.72;3.10;;;;;;;24.33;87.26;100432.50;5588869;31;34247;-74
2022/06/04 10:46:55;;;;;;;10.13;3.33;;;;;;;24.33;86.12;100443.34;5588106;31;34860;-73
2022/06/04 10:50:10;;;;;;;6.65;3.00;;;;;;;23.84;88.26;100451.47;5588688;31;34171;-74
2022/06/04 10:53:26;;;;;;;5.60;3.78;;;;;;;24.37;87.17;100439.84;5588720;31;34890;-73
2022/06/04 10:56:39;;;;;;;7.95;3.87;;;;;;;23.58;88.60;100453.03;5588759;31;34105;-76
2022/06/04 10:59:53;;;;;;;8.13;3.65;;;;;;;23.25;92.04;100450.37;5588978;31;34321;-73
2022/06/04 11:03:19;;;;;;;10.02;4.78;;;;;;;24.14;86.64;100451.00;5588471;31;34223;-72
2022/06/04 11:06:33;;;;;;;5.65;3.40;;;;;;;24.42;86.91;100445.34;5588913;31;34244;-72
2022/06/04 11:09:40;;;;;;;4.70;3.60;;;;;;;24.33;85.72;100448.75;5588336;31;34265;-74
2022/06/04 11:12:55;;;;;;;6.57;3.45;;;;;;;23.88;86.01;100449.06;5587606;31;32806;-75
2022/06/04 11:16:17;;;;;;;6.47;3.30;;;;;;;24.07;87.36;100444.94;5588231;31;34211;-74
2022/06/04 11:19:26;;;;;;;5.53;2.87;;;;;;;24.64;84.03;100450.69;5588183;31;34289;-75
2022/06/04 11:22:36;;;;;;;5.60;3.08;;;;;;;24.74;83.40;100466.25;5588237;31;34699;-74
2022/06/04 11:25:42;;;;;;;5.82;2.80;;;;;;;24.40;83.48;100471.09;5588144;31;35040;-72
2022/06/04 11:28:46;;;;;;;3.45;2.90;;;;;;;24.17;84.25;100459.44;5588143;31;34324;-74
2022/06/04 11:32:08;;;;;;;5.18;3.47;;;;;;;23.82;86.27;100472.56;5588132;31;34269;-76
2022/06/04 11:35:40;;;;;;;5.03;3.40;;;;;;;23.05;90.29;100469.84;5587373;31;33094;-76
2022/06/04 11:38:54;;;;;;;6.25;3.50;;;;;;;22.97;93.97;100475.66;5588043;31;34705;-74
2022/06/04 11:42:26;;;;;;;5.53;3.50;;;;;;;23.21;90.45;100474.41;5587879;31;34244;-74
2022/06/04 11:45:56;;;;;;;6.75;3.20;;;;;;;23.32;91.53;100476.22;5588865;31;34873;-75
2022/06/04 11:49:02;;;;;;;5.22;3.47;;;;;;;23.85;87.24;100482.09;5590876;31;34301;-73
2022/06/04 11:52:30;;;;;;;6.03;3.60;;;;;;;23.88;85.98;100474.25;5590686;31;34124;-72
2022/06/04 11:55:48;;;;;;;9.52;3.75;;;;;;;23.29;88.85;100470.47;5590565;31;34240;-73
2022/06/04 11:59:13;;;;;;;6.15;3.35;;;;;;;23.85;86.72;100468.53;5590455;31;34636;-74
2022/06/04 12:02:55;;;;;;;5.80;3.45;;;;;;;24.17;83.70;100480.31;5590360;31;35035;-74
2022/06/04 12:06:23;;;;;;;5.53;3.62;;;;;;;24.57;82.27;100469.88;5589707;31;34985;-73
2022/06/04 12:09:28;;;;;;;7.00;3.40;;;;;;;24.57;81.57;100478.03;5590806;31;34130;-75
2022/06/04 12:12:44;;;;;;;4.55;2.80;;;;;;;24.47;81.65;100479.81;5589635;31;32647;-76
2022/06/04 12:15:53;;;;;;;4.65;3.12;;;;;;;24.80;80.03;100481.47;5590375;31;35440;-75
2022/06/04 12:19:03;;;;;;;7.12;3.22;;;;;;;24.80;78.89;100474.16;5590273;31;34456;-75
2022/06/04 12:25:47;;;;;;;5.75;3.10;;;;;;;26.39;72.03;100486.44;5590311;31;34771;-77
2022/06/04 12:28:50;;;;;;;7.47;2.97;;;;;;;28.35;62.98;100489.13;5590263;31;34343;-76
2022/06/04 12:32:04;;;;;;;4.60;2.90;;;;;;;27.41;67.55;100500.88;5590135;31;34319;-76
2022/06/04 12:35:09;;;;;;;4.97;3.10;;;;;;;26.60;70.13;100495.47;5590031;31;34099;-76
2022/06/04 12:38:14;;;;;;;4.12;2.80;;;;;;;27.68;66.42;100493.22;5589330;31;34735;-77
2022/06/04 12:41:19;;;;;;;4.32;2.62;;;;;;;30.68;57.64;100483.91;5590396;31;34224;-77
2022/06/04 12:44:34;;;;;;;4.85;2.30;;;;;;;34.54;44.63;100466.16;5590043;31;34217;-77
2022/06/04 12:47:37;;;;;;;5.37;2.35;;;;;;;37.49;35.91;100477.44;5589282;31;34133;-75
2022/06/04 12:50:46;;;;;;;3.40;2.20;;;;;;;37.37;36.68;100477.44;5589838;31;34330;-76
2022/06/04 12:54:04;;;;;;;3.15;2.03;;;;;;;36.12;37.29;100474.00;5590275;31;34661;-76
2022/06/04 12:57:07;;;;;;;4.03;1.92;;;;;;;38.27;34.57;100474.37;5589160;31;34943;-75
2022/06/04 13:00:30;;;;;;;3.28;1.73;;;;;;;37.91;34.81;100469.69;5589769;31;34737;-78
2022/06/04 13:03:38;;;;;;;1.67;1.27;;;;;;;38.14;33.30;100470.03;5590168;31;34385;-73
2022/06/04 13:06:58;;;;;;;2.27;1.43;;;;;;;37.41;34.00;100468.09;5589011;31;33872;-74
2022/06/04 13:10:13;;;;;;;2.35;1.60;;;;;;;39.12;31.86;100460.94;5589993;31;34483;-72
2022/06/04 13:13:44;;;;;;;2.78;1.55;;;;;;;38.99;31.71;100461.38;5589625;31;34837;-74
2022/06/04 13:16:52;;;;;;;2.95;1.62;;;;;;;37.79;33.75;100453.91;5589600;31;34829;-73
2022/06/04 13:20:07;;;;;;;2.92;1.73;;;;;;;36.16;35.88;100459.22;5589917;31;34191;-77
2022/06/04 13:23:38;;;;;;;4.40;1.45;;;;;;;38.09;33.89;100457.25;5588785;31;32680;-75
2022/06/04 13:27:06;;;;;;;3.75;1.70;;;;;;;37.00;34.84;100455.22;5589648;31;35453;-75
2022/06/04 13:30:20;;;;;;;2.30;1.50;;;;;;;38.32;33.33;100443.66;5589876;31;34092;-76
2022/06/04 13:33:23;;;;;;;3.50;1.67;;;;;;;38.70;31.61;100446.72;5589315;31;34295;-74
2022/06/04 13:36:29;;;;;;;1.80;1.40;;;;;;;37.04;34.29;100449.00;5589629;31;34844;-76
2022/06/04 13:39:33;;;;;;;1.95;1.50;;;;;;;36.74;35.39;100451.13;5589625;31;34155;-75
2022/06/04 13:42:40;;;;;;;1.80;1.33;;;;;;;38.15;33.17;100446.72;5588589;31;33198;-73
2022/06/04 13:45:42;;;;;;;2.22;1.33;;;;;;;38.08;32.46;100438.19;5588715;31;34547;-74
2022/06/04 13:48:55;;;;;;;2.05;1.20;;;;;;;36.06;35.74;100432.00;5589122;31;34998;-71
2022/06/04 13:52:10;;;;;;;2.03;1.20;;;;;;;35.71;36.23;100433.37;5589281;31;34263;-71
2022/06/04 13:55:27;;;;;;;2.92;1.27;;;;;;;36.99;35.15;100436.19;5589142;31;34819;-74
2022/06/04 13:58:34;;;;;;;3.92;1.20;;;;;;;38.98;30.94;100432.84;5589300;31;34932;-76
2022/06/04 14:01:38;;;;;;;3.00;1.00;;;;;;;40.41;29.17;100431.44;5589064;31;34765;-75
2022/06/04 14:08:05;;;;;;;3.62;1.17;;;;;;;40.63;28.92;100434.28;5588549;31;34165;-75
2022/06/04 14:11:24;;;;;;;1.40;1.08;;;;;;;40.14;28.52;100420.13;5588872;31;34862;-76
2022/06/04 14:14:57;;;;;;;2.62;1.20;;;;;;;41.13;27.56;100413.75;5589113;31;34826;-74
2022/06/04 14:18:27;;;;;;;2.53;1.30;;;;;;;40.79;28.32;100421.06;5589046;31;34281;-71
2022/06/04 14:22:01;;;;;;;3.45;1.08;;;;;;;39.93;28.01;100414.13;5588846;31;33649;-75
2022/06/04 14:25:37;;;;;;;1.17;1.00;;;;;;;36.06;34.93;100400.81;5588892;31;34135;-74
2022/06/04 14:28:55;;;;;;;1.87;1.05;;;;;;;33.02;41.78;100393.56;5589012;31;34918;-75
2022/06/04 14:32:16;;;;;;;2.70;1.25;;;;;;;33.49;42.51;100390.06;5575315;31;32826;-73
2022/06/04 14:35:28;;;;;;;2.08;1.00;;;;;;;37.19;33.38;100387.47;5588911;31;34155;-73
2022/06/04 14:38:34;;;;;;;3.50;1.20;;;;;;;39.02;30.20;100380.22;5588404;31;33534;-75
2022/06/04 14:41:56;;;;;;;3.42;1.50;;;;;;;39.01;29.98;100387.75;5588697;31;34969;-75
2022/06/04 14:45:19;;;;;;;4.25;1.27;;;;;;;39.77;29.62;100383.63;5588684;31;34283;-75
2022/06/04 14:48:49;;;;;;;2.47;1.33;;;;;;;39.09;30.09;100369.28;5588583;31;34821;-75
2022/06/04 14:52:08;;;;;;;2.62;0.95;;;;;;;40.21;27.70;100361.12;5588585;31;34128;-75
2022/06/04 14:55:41;;;;;;;2.67;0.90;;;;;;;41.32;27.22;100361.91;5588816;31;34145;-75